Time;durP1;ratioP1;P1;durP2;ratioP2;P2;SDS_P1;SDS_P2;PMS_P1;PMS_P2;Temp;Humidity;BMP_temperature;BMP_pressure;BME280_temperature;BME280_humidity;BME280_pressure;Samples;Min_cycle;Max_cycle;Signal;HPM_P1;HPM_P2
2023/08/29 00:03:40;;;;;;;1.30;0.40;;;;;;;;;;10476357;28;20479;-86
2023/08/29 00:08:42;;;;;;;0.90;0.60;;;;;;;;;;10475703;28;20449;-85
2023/08/29 00:13:44;;;;;;;0.70;0.40;;;;;;;;;;10476060;28;20454;-85
2023/08/29 00:18:48;;;;;;;3.20;0.60;;;;;;;;;;10481283;28;21014;-86
2023/08/29 01:05:33;;;;;;;2.00;0.70;;;;;;;;;;4385421;28;22417;-83
2023/08/29 01:10:44;;;;;;;3.67;0.80;;;;;;;;;;10478870;28;20402;-86
2023/08/29 01:15:50;;;;;;;3.20;0.80;;;;;;;;;;10477864;28;20485;-86
2023/08/29 01:21:01;;;;;;;2.80;0.90;;;;;;;;;;10476344;28;20493;-84
2023/08/29 01:26:12;;;;;;;2.60;0.80;;;;;;;;;;10473985;28;20476;-85
2023/08/29 01:31:15;;;;;;;3.50;1.30;;;;;;;;;;10472284;28;20406;-84
2023/08/29 01:36:18;;;;;;;1.70;0.70;;;;;;;;;;10472211;28;20456;-86
2023/08/29 01:41:21;;;;;;;3.22;0.90;;;;;;;;;;10478817;28;20468;-85
2023/08/29 01:46:23;;;;;;;2.93;0.87;;;;;;;;;;10470261;28;20412;-85
2023/08/29 01:51:26;;;;;;;2.35;1.02;;;;;;;;;;10474080;28;20448;-85
2023/08/29 01:56:31;;;;;;;3.60;0.97;;;;;;;;;;10464726;28;20448;-85
2023/08/29 02:01:34;;;;;;;2.50;0.80;;;;;;;;;;10470948;28;20482;-85
2023/08/29 02:06:36;;;;;;;3.63;1.40;;;;;;;;;;10481504;28;20407;-86
2023/08/29 02:11:40;;;;;;;3.03;1.10;;;;;;;;;;10479092;28;20474;-85
2023/08/29 02:16:42;;;;;;;3.65;1.15;;;;;;;;;;10478284;28;20895;-86
2023/08/29 02:21:44;;;;;;;2.95;1.10;;;;;;;;;;10472944;28;20982;-86
2023/08/29 02:26:48;;;;;;;2.30;1.30;;;;;;;;;;10471525;28;20404;-86
2023/08/29 02:31:50;;;;;;;4.95;1.25;;;;;;;;;;10465214;28;20733;-85
2023/08/29 02:36:53;;;;;;;3.90;1.20;;;;;;;;;;10476442;28;20813;-86
2023/08/29 02:41:57;;;;;;;2.65;1.35;;;;;;;;;;10475353;28;20414;-86
2023/08/29 02:46:59;;;;;;;4.32;1.20;;;;;;;;;;10473467;28;20570;-86
2023/08/29 02:52:02;;;;;;;2.40;0.85;;;;;;;;;;10469704;28;20416;-85
2023/08/29 02:57:05;;;;;;;2.37;0.93;;;;;;;;;;10478577;28;20410;-85
2023/08/29 03:02:08;;;;;;;1.70;0.73;;;;;;;;;;10469259;28;20413;-86
2023/08/29 03:07:10;;;;;;;4.28;1.00;;;;;;;;;;10474574;28;20405;-86
2023/08/29 03:12:14;;;;;;;2.40;1.00;;;;;;;;;;10469159;28;20431;-86
2023/08/29 03:17:16;;;;;;;3.27;1.10;;;;;;;;;;10471093;28;20779;-86
2023/08/29 03:22:18;;;;;;;3.58;1.30;;;;;;;;;;10472548;28;20898;-85
2023/08/29 03:27:22;;;;;;;3.08;1.20;;;;;;;;;;10469633;28;20445;-86
2023/08/29 03:32:24;;;;;;;4.85;1.08;;;;;;;;;;10475002;28;20933;-86
2023/08/29 03:37:27;;;;;;;5.00;1.20;;;;;;;;;;10474635;28;20408;-86
2023/08/29 03:42:31;;;;;;;3.53;1.00;;;;;;;;;;10481402;28;20471;-85
2023/08/29 03:47:34;;;;;;;3.42;1.02;;;;;;;;;;10485830;28;20464;-85
2023/08/29 03:52:36;;;;;;;3.35;1.67;;;;;;;;;;10480933;28;20465;-84
2023/08/29 03:57:40;;;;;;;4.43;1.10;;;;;;;;;;10475620;28;20469;-86
2023/08/29 04:02:42;;;;;;;4.15;1.20;;;;;;;;;;10476372;28;21058;-86
2023/08/29 04:07:45;;;;;;;3.80;1.00;;;;;;;;;;10475357;28;20821;-86
2023/08/29 04:12:49;;;;;;;3.17;1.02;;;;;;;;;;10478971;28;20408;-85
2023/08/29 04:17:51;;;;;;;2.75;1.27;;;;;;;;;;10484459;28;20406;-85
2023/08/29 04:22:54;;;;;;;6.20;1.37;;;;;;;;;;10475981;28;20468;-85
2023/08/29 04:27:58;;;;;;;5.97;1.55;;;;;;;;;;10478352;28;20406;-85
2023/08/29 04:33:00;;;;;;;3.05;1.15;;;;;;;;;;10482224;28;20920;-84
2023/08/29 04:38:03;;;;;;;4.15;1.52;;;;;;;;;;10479344;28;20401;-84
2023/08/29 04:43:07;;;;;;;3.77;1.27;;;;;;;;;;10479557;28;20394;-85
2023/08/29 04:48:09;;;;;;;4.83;1.40;;;;;;;;;;10495936;28;20413;-85
2023/08/29 04:53:11;;;;;;;5.05;1.35;;;;;;;;;;10481502;28;20418;-85
2023/08/29 04:58:15;;;;;;;4.28;1.55;;;;;;;;;;10482547;28;20902;-85
2023/08/29 05:03:18;;;;;;;2.78;1.20;;;;;;;;;;10479611;28;20414;-85
2023/08/29 05:08:21;;;;;;;2.43;1.20;;;;;;;;;;10477436;28;20505;-85
2023/08/29 05:13:24;;;;;;;4.28;1.25;;;;;;;;;;10478068;28;20453;-85
2023/08/29 05:18:27;;;;;;;3.75;1.30;;;;;;;;;;10477626;28;20459;-85
2023/08/29 05:23:29;;;;;;;5.07;1.33;;;;;;;;;;10472673;28;20409;-85
2023/08/29 05:28:33;;;;;;;4.32;1.30;;;;;;;;;;10477251;28;20903;-85
2023/08/29 05:33:35;;;;;;;4.60;1.60;;;;;;;;;;10474834;28;20428;-85
2023/08/29 05:38:37;;;;;;;6.30;1.73;;;;;;;;;;10480785;28;20478;-84
2023/08/29 05:43:41;;;;;;;6.15;1.30;;;;;;;;;;10472874;28;20458;-84
2023/08/29 05:48:44;;;;;;;6.00;1.58;;;;;;;;;;10472145;28;20406;-84
2023/08/29 05:53:46;;;;;;;5.10;1.67;;;;;;;;;;10476908;28;20482;-84
2023/08/29 05:58:50;;;;;;;3.95;1.73;;;;;;;;;;10477882;28;20410;-85
2023/08/29 06:03:53;;;;;;;3.42;1.30;;;;;;;;;;10467800;28;20435;-85
2023/08/29 06:08:55;;;;;;;6.05;1.33;;;;;;;;;;10460751;28;20443;-85
2023/08/29 06:13:59;;;;;;;3.60;1.43;;;;;;;;;;10477563;28;20483;-85
2023/08/29 06:19:01;;;;;;;2.90;1.38;;;;;;;;;;10478912;28;20441;-85
2023/08/29 06:24:04;;;;;;;3.30;1.00;;;;;;;;;;10467629;28;20458;-85
2023/08/29 06:29:08;;;;;;;3.35;1.00;;;;;;;;;;10474817;28;20441;-84
2023/08/29 06:34:10;;;;;;;3.70;1.02;;;;;;;;;;10476165;28;20422;-84
2023/08/29 06:39:13;;;;;;;2.07;1.13;;;;;;;;;;10489868;28;20479;-83
2023/08/29 06:44:16;;;;;;;3.15;1.00;;;;;;;;;;10472632;28;20455;-84
2023/08/29 06:49:19;;;;;;;4.47;1.40;;;;;;;;;;10465503;28;20410;-81
2023/08/29 06:54:21;;;;;;;2.07;1.00;;;;;;;;;;10470395;28;20507;-84
2023/08/29 06:59:25;;;;;;;4.47;1.30;;;;;;;;;;10470429;28;20955;-86
2023/08/29 07:04:27;;;;;;;4.35;1.20;;;;;;;;;;10471085;28;20469;-86
2023/08/29 07:09:30;;;;;;;3.43;1.00;;;;;;;;;;10477357;28;20405;-86
2023/08/29 07:14:34;;;;;;;2.88;1.00;;;;;;;;;;10466337;28;20909;-84
2023/08/29 07:19:36;;;;;;;4.00;1.08;;;;;;;;;;10470635;28;20406;-83
2023/08/29 07:24:39;;;;;;;2.92;0.90;;;;;;;;;;10466313;28;21233;-85
2023/08/29 07:29:43;;;;;;;0.68;0.40;;;;;;;;;;10472038;28;20750;-85
2023/08/29 07:34:45;;;;;;;3.22;0.82;;;;;;;;;;10475671;28;20489;-86
2023/08/29 07:39:48;;;;;;;1.92;0.50;;;;;;;;;;10478304;28;20766;-86
2023/08/29 07:44:51;;;;;;;1.80;0.47;;;;;;;;;;10484077;28;20418;-84
2023/08/29 07:49:54;;;;;;;2.22;0.63;;;;;;;;;;10459407;28;20501;-85
2023/08/29 07:54:58;;;;;;;1.00;0.50;;;;;;;;;;10463040;28;20458;-84
2023/08/29 08:00:02;;;;;;;0.75;0.45;;;;;;;;;;10472986;28;20405;-84
2023/08/29 08:05:05;;;;;;;1.77;0.50;;;;;;;;;;10473830;28;20406;-85
2023/08/29 08:10:08;;;;;;;1.70;0.52;;;;;;;;;;10469728;28;20782;-85
2023/08/29 08:15:12;;;;;;;2.17;1.27;;;;;;;;;;10472238;28;20417;-86
2023/08/29 08:20:15;;;;;;;1.40;0.90;;;;;;;;;;10466894;28;20969;-86
2023/08/29 08:25:17;;;;;;;2.33;0.87;;;;;;;;;;10493995;28;20415;-85
2023/08/29 08:30:22;;;;;;;1.50;0.80;;;;;;;;;;10480792;28;20471;-85
2023/08/29 08:35:25;;;;;;;2.75;0.90;;;;;;;;;;10473038;28;20455;-84
2023/08/29 08:40:28;;;;;;;2.70;1.10;;;;;;;;;;10462355;28;20441;-85
2023/08/29 08:45:32;;;;;;;4.10;1.10;;;;;;;;;;10468067;28;21040;-85
2023/08/29 08:50:35;;;;;;;2.67;1.38;;;;;;;;;;10473559;28;20452;-85
2023/08/29 08:55:38;;;;;;;3.05;0.95;;;;;;;;;;10468557;28;21231;-85
2023/08/29 09:00:42;;;;;;;2.83;1.20;;;;;;;;;;10465860;28;20437;-85
2023/08/29 09:05:44;;;;;;;3.92;1.30;;;;;;;;;;10455522;28;20503;-86
2023/08/29 09:10:46;;;;;;;3.50;1.00;;;;;;;;;;10464704;28;20489;-85
2023/08/29 09:15:50;;;;;;;2.67;1.27;;;;;;;;;;10466841;28;20520;-86
2023/08/29 09:20:53;;;;;;;4.60;3.00;;;;;;;;;;10461855;28;20483;-86
2023/08/29 09:25:56;;;;;;;4.20;1.87;;;;;;;;;;10461727;28;20523;-85
2023/08/29 09:31:08;;;;;;;2.20;1.70;;;;;;;;;;10478807;28;20514;-85
2023/08/29 09:36:12;;;;;;;1.20;1.10;;;;;;;;;;10458155;28;20516;-85
2023/08/29 09:41:14;;;;;;;3.22;1.25;;;;;;;;;;10445808;28;20443;-85
2023/08/29 09:46:23;;;;;;;2.53;1.20;;;;;;;;;;10470469;28;20447;-86
2023/08/29 09:51:28;;;;;;;1.77;0.90;;;;;;;;;;10462871;28;20487;-83
2023/08/29 09:56:31;;;;;;;2.88;1.10;;;;;;;;;;10471638;28;21137;-84
2023/08/29 10:01:35;;;;;;;1.92;1.00;;;;;;;;;;10463898;28;20415;-84
2023/08/29 10:06:38;;;;;;;2.20;1.00;;;;;;;;;;10472720;28;20846;-84
2023/08/29 10:11:40;;;;;;;1.55;0.88;;;;;;;;;;10500718;28;20418;-84
2023/08/29 10:16:44;;;;;;;1.80;0.90;;;;;;;;;;10482528;28;20480;-84
2023/08/29 10:21:50;;;;;;;2.42;0.85;;;;;;;;;;10464215;28;20458;-84
2023/08/29 10:26:53;;;;;;;1.77;0.90;;;;;;;;;;10460830;28;20440;-84
2023/08/29 10:31:57;;;;;;;2.47;0.87;;;;;;;;;;10461648;28;20439;-83
2023/08/29 10:37:00;;;;;;;1.50;0.60;;;;;;;;;;10457743;28;20443;-83
2023/08/29 10:42:03;;;;;;;2.20;0.55;;;;;;;;;;10458043;28;20440;-85
2023/08/29 10:47:20;;;;;;;1.80;0.63;;;;;;;;;;10460356;28;20489;-83
2023/08/29 10:52:23;;;;;;;0.90;0.50;;;;;;;;;;10467657;28;20400;-84
2023/08/29 10:57:29;;;;;;;1.48;0.70;;;;;;;;;;10469598;28;20422;-83
2023/08/29 11:02:35;;;;;;;1.47;1.00;;;;;;;;;;10479719;28;20414;-84
2023/08/29 11:07:38;;;;;;;1.45;0.70;;;;;;;;;;10459695;28;20510;-84
2023/08/29 11:13:09;;;;;;;2.13;0.70;;;;;;;;;;10459355;28;20568;-84
2023/08/29 11:18:23;;;;;;;0.80;0.55;;;;;;;;;;10458876;28;20934;-85
2023/08/29 11:23:27;;;;;;;1.03;0.60;;;;;;;;;;10452793;28;20413;-85
2023/08/29 11:28:32;;;;;;;2.88;0.90;;;;;;;;;;10461989;28;20442;-84
2023/08/29 11:33:37;;;;;;;1.35;0.70;;;;;;;;;;10460437;28;20941;-85
2023/08/29 11:38:40;;;;;;;1.65;1.10;;;;;;;;;;10472517;28;21203;-85
2023/08/29 11:43:42;;;;;;;3.05;0.70;;;;;;;;;;10461426;28;20529;-85
2023/08/29 11:48:46;;;;;;;1.00;0.80;;;;;;;;;;10453433;28;20508;-85
2023/08/29 11:53:51;;;;;;;3.40;0.87;;;;;;;;;;10461716;28;20414;-83
2023/08/29 11:58:56;;;;;;;0.93;0.80;;;;;;;;;;10475671;28;20985;-84
2023/08/29 12:04:00;;;;;;;1.42;0.70;;;;;;;;;;10468550;28;20441;-85
2023/08/29 12:09:03;;;;;;;2.53;0.70;;;;;;;;;;10484817;28;20447;-83
2023/08/29 12:14:07;;;;;;;2.10;0.68;;;;;;;;;;10463484;28;20446;-84
2023/08/29 12:19:16;;;;;;;1.40;0.70;;;;;;;;;;10478261;28;20458;-84
2023/08/29 12:24:18;;;;;;;2.78;0.80;;;;;;;;;;10493229;28;20398;-84
2023/08/29 12:29:21;;;;;;;2.90;0.70;;;;;;;;;;10478943;28;20451;-83
2023/08/29 12:34:24;;;;;;;1.10;0.65;;;;;;;;;;10477835;28;20439;-85
2023/08/29 12:39:27;;;;;;;1.67;0.70;;;;;;;;;;10475437;28;20457;-84
2023/08/29 12:44:29;;;;;;;1.30;0.50;;;;;;;;;;10479802;28;20487;-84
2023/08/29 12:49:33;;;;;;;3.35;1.33;;;;;;;;;;10473763;28;20410;-83
2023/08/29 12:54:36;;;;;;;2.22;0.70;;;;;;;;;;10472321;28;20456;-84
2023/08/29 12:59:38;;;;;;;4.72;1.05;;;;;;;;;;10473855;28;20909;-83
2023/08/29 13:04:42;;;;;;;1.90;0.93;;;;;;;;;;10467999;28;20414;-84
2023/08/29 13:09:47;;;;;;;2.10;0.75;;;;;;;;;;10474777;28;20431;-83
2023/08/29 13:14:49;;;;;;;0.90;0.82;;;;;;;;;;10478186;28;20450;-84
2023/08/29 13:19:52;;;;;;;1.83;0.80;;;;;;;;;;10475226;28;20406;-82
2023/08/29 13:24:55;;;;;;;1.20;0.90;;;;;;;;;;10476173;28;20448;-84
2023/08/29 13:29:57;;;;;;;1.60;0.85;;;;;;;;;;10476757;28;21113;-82
2023/08/29 13:35:01;;;;;;;3.03;1.00;;;;;;;;;;10474348;28;20889;-85
2023/08/29 13:40:05;;;;;;;0.70;0.60;;;;;;;;;;10476728;28;20406;-82
2023/08/29 13:45:08;;;;;;;3.22;0.80;;;;;;;;;;10479498;28;20406;-82
2023/08/29 13:50:12;;;;;;;1.05;0.68;;;;;;;;;;10479309;28;20788;-84
2023/08/29 13:55:14;;;;;;;1.30;0.70;;;;;;;;;;10476306;28;20458;-83
2023/08/29 14:00:18;;;;;;;2.30;1.10;;;;;;;;;;10472939;28;20471;-84
2023/08/29 14:05:21;;;;;;;3.20;0.90;;;;;;;;;;10469275;28;20407;-85
2023/08/29 14:10:24;;;;;;;1.35;0.88;;;;;;;;;;10471046;28;20409;-85
2023/08/29 14:15:27;;;;;;;1.80;0.80;;;;;;;;;;10474121;28;20438;-85
2023/08/29 14:20:31;;;;;;;1.10;0.77;;;;;;;;;;10479865;28;20511;-83
2023/08/29 14:25:33;;;;;;;2.00;0.85;;;;;;;;;;10469686;28;20453;-84
2023/08/29 14:30:42;;;;;;;1.70;1.07;;;;;;;;;;10460035;28;20514;-85
2023/08/29 14:35:46;;;;;;;1.50;0.90;;;;;;;;;;10457568;28;21063;-84
2023/08/29 14:40:48;;;;;;;2.78;1.20;;;;;;;;;;10465732;28;20435;-85
2023/08/29 14:45:51;;;;;;;12.60;1.50;;;;;;;;;;10461307;28;20468;-85
2023/08/29 14:50:57;;;;;;;2.78;1.00;;;;;;;;;;10459632;28;20447;-85
2023/08/29 14:56:00;;;;;;;1.98;1.20;;;;;;;;;;10463658;28;20445;-84
2023/08/29 15:01:02;;;;;;;2.20;1.20;;;;;;;;;;10468811;28;20488;-84
2023/08/29 15:06:08;;;;;;;2.97;1.70;;;;;;;;;;10459039;28;20437;-84
2023/08/29 15:11:10;;;;;;;4.67;1.70;;;;;;;;;;10463588;28;20443;-85
2023/08/29 15:16:12;;;;;;;4.53;1.40;;;;;;;;;;10464260;28;20446;-85
2023/08/29 15:21:16;;;;;;;3.95;1.70;;;;;;;;;;10459377;28;20943;-83
2023/08/29 15:26:19;;;;;;;3.07;1.67;;;;;;;;;;10464712;28;20416;-84
2023/08/29 15:31:21;;;;;;;3.92;2.42;;;;;;;;;;10468164;28;20406;-84
2023/08/29 15:36:26;;;;;;;3.65;1.73;;;;;;;;;;10481271;28;20540;-84
2023/08/29 15:41:28;;;;;;;3.42;1.83;;;;;;;;;;10444261;28;20509;-84
2023/08/29 15:46:30;;;;;;;4.05;2.40;;;;;;;;;;10443109;28;20426;-89
2023/08/29 15:51:34;;;;;;;4.75;2.05;;;;;;;;;;10441749;28;20473;-88
2023/08/29 15:56:36;;;;;;;3.70;2.30;;;;;;;;;;10452661;28;20454;-86
2023/08/29 16:01:38;;;;;;;4.43;2.47;;;;;;;;;;10462973;28;20518;-87
2023/08/29 16:06:42;;;;;;;4.50;2.33;;;;;;;;;;10462875;28;20518;-88
2023/08/29 16:11:44;;;;;;;3.78;2.33;;;;;;;;;;10464275;28;20459;-86
2023/08/29 16:16:47;;;;;;;3.33;2.00;;;;;;;;;;10467766;28;20477;-87
2023/08/29 16:21:50;;;;;;;3.92;2.55;;;;;;;;;;10471713;28;20444;-87
2023/08/29 16:26:53;;;;;;;4.53;2.70;;;;;;;;;;10465730;28;20520;-88
2023/08/29 16:31:55;;;;;;;3.65;2.67;;;;;;;;;;10462729;28;20423;-87
2023/08/29 16:36:58;;;;;;;5.00;2.20;;;;;;;;;;10459834;28;20493;-85
2023/08/29 16:42:01;;;;;;;4.38;2.20;;;;;;;;;;10454584;28;20437;-87
2023/08/29 16:47:03;;;;;;;3.70;2.00;;;;;;;;;;10466275;28;20454;-86
2023/08/29 16:52:07;;;;;;;2.90;2.03;;;;;;;;;;10466504;28;20439;-88
2023/08/29 16:57:10;;;;;;;5.43;2.70;;;;;;;;;;10471046;28;20571;-86
2023/08/29 17:02:12;;;;;;;4.45;2.50;;;;;;;;;;10468247;28;20507;-86
2023/08/29 17:07:16;;;;;;;4.15;2.13;;;;;;;;;;10475767;28;20519;-86
2023/08/29 17:12:20;;;;;;;2.90;1.45;;;;;;;;;;10464356;28;20862;-89
2023/08/29 17:17:22;;;;;;;2.20;1.65;;;;;;;;;;10466405;28;20495;-87
2023/08/29 17:22:26;;;;;;;2.90;1.10;;;;;;;;;;10479149;28;20407;-87
2023/08/29 17:27:28;;;;;;;5.27;1.30;;;;;;;;;;10466406;28;20414;-87
2023/08/29 17:32:31;;;;;;;2.50;0.90;;;;;;;;;;10463571;28;20418;-79
2023/08/29 17:37:38;;;;;;;1.17;0.88;;;;;;;;;;10465403;28;20486;-84
2023/08/29 17:42:42;;;;;;;3.05;0.80;;;;;;;;;;10475701;28;20888;-84
2023/08/29 17:47:44;;;;;;;2.40;1.20;;;;;;;;;;10473611;28;20429;-84
2023/08/29 17:52:48;;;;;;;2.45;1.23;;;;;;;;;;10464627;28;20458;-83
2023/08/29 17:57:50;;;;;;;1.42;0.95;;;;;;;;;;10473117;28;20518;-84
2023/08/29 18:02:53;;;;;;;2.03;0.97;;;;;;;;;;10480935;28;21028;-83
2023/08/29 18:07:57;;;;;;;1.40;0.93;;;;;;;;;;10468452;28;20507;-82
2023/08/29 18:12:59;;;;;;;1.73;0.77;;;;;;;;;;10468258;28;20473;-85
2023/08/29 18:18:16;;;;;;;1.00;0.60;;;;;;;;;;10467215;28;20453;-84
2023/08/29 18:23:21;;;;;;;1.20;0.50;;;;;;;;;;10464149;28;20453;-84
2023/08/29 18:28:24;;;;;;;0.90;0.60;;;;;;;;;;10471181;28;20429;-84
2023/08/29 18:33:27;;;;;;;1.25;0.60;;;;;;;;;;10469408;28;20959;-84
2023/08/29 18:38:31;;;;;;;0.80;0.50;;;;;;;;;;10469038;28;20445;-84
2023/08/29 18:43:33;;;;;;;1.67;0.43;;;;;;;;;;10470950;28;21109;-84
2023/08/29 18:48:36;;;;;;;1.83;0.45;;;;;;;;;;10466272;28;20484;-84
2023/08/29 18:53:39;;;;;;;1.48;0.55;;;;;;;;;;10461168;28;20526;-84
2023/08/29 18:58:42;;;;;;;1.73;0.60;;;;;;;;;;10465580;28;20515;-85
2023/08/29 19:03:44;;;;;;;2.73;0.83;;;;;;;;;;10458818;28;20450;-83
2023/08/29 19:08:48;;;;;;;1.20;0.90;;;;;;;;;;10464943;28;20445;-84
2023/08/29 19:13:51;;;;;;;1.73;1.00;;;;;;;;;;10453618;28;21018;-85
2023/08/29 19:18:54;;;;;;;1.52;1.20;;;;;;;;;;10461060;28;20505;-84
2023/08/29 19:23:57;;;;;;;2.97;1.30;;;;;;;;;;10462102;28;20443;-84
2023/08/29 19:29:00;;;;;;;3.47;1.30;;;;;;;;;;10465309;28;20484;-84
2023/08/29 19:34:02;;;;;;;1.80;1.30;;;;;;;;;;10464574;28;20816;-82
2023/08/29 19:39:06;;;;;;;2.35;1.50;;;;;;;;;;10466394;28;20485;-85
2023/08/29 19:44:08;;;;;;;2.28;1.30;;;;;;;;;;10467939;28;20409;-85
2023/08/29 19:49:11;;;;;;;2.57;1.33;;;;;;;;;;10463260;28;20472;-85
2023/08/29 19:54:14;;;;;;;3.08;1.20;;;;;;;;;;10458989;28;20443;-85
2023/08/29 19:59:17;;;;;;;3.30;1.38;;;;;;;;;;10454314;28;20511;-85
2023/08/29 20:04:20;;;;;;;2.88;1.63;;;;;;;;;;10461743;28;20500;-84
2023/08/29 20:09:24;;;;;;;2.30;1.52;;;;;;;;;;10465830;28;20410;-84
2023/08/29 20:14:29;;;;;;;3.35;1.40;;;;;;;;;;10460305;28;20459;-85
2023/08/29 20:19:31;;;;;;;0.73;0.60;;;;;;;;;;10463086;28;20467;-83
2023/08/29 20:24:35;;;;;;;1.00;0.60;;;;;;;;;;10467764;28;20435;-84
2023/08/29 20:29:37;;;;;;;0.50;0.40;;;;;;;;;;10458100;28;20927;-84
2023/08/29 20:34:40;;;;;;;1.00;0.30;;;;;;;;;;10467773;28;20521;-84
2023/08/29 20:39:44;;;;;;;1.90;0.40;;;;;;;;;;10468628;28;20455;-84
2023/08/29 20:44:46;;;;;;;0.50;0.50;;;;;;;;;;10465101;28;20470;-83
2023/08/29 20:49:48;;;;;;;1.93;0.47;;;;;;;;;;10472402;28;20457;-84
2023/08/29 20:54:52;;;;;;;0.70;0.30;;;;;;;;;;10465689;28;20414;-84
2023/08/29 20:59:55;;;;;;;0.75;0.40;;;;;;;;;;10464249;28;20458;-84
2023/08/29 21:04:57;;;;;;;1.20;0.40;;;;;;;;;;10465006;28;20522;-85
2023/08/29 21:10:01;;;;;;;1.58;0.50;;;;;;;;;;10465611;28;21418;-85
2023/08/29 21:15:07;;;;;;;1.20;0.40;;;;;;;;;;10465858;28;20912;-85
2023/08/29 21:20:10;;;;;;;1.90;0.50;;;;;;;;;;10473982;28;20443;-85
2023/08/29 21:25:14;;;;;;;2.80;0.60;;;;;;;;;;10473317;28;20464;-85
2023/08/29 21:30:17;;;;;;;1.05;0.55;;;;;;;;;;10468173;28;20526;-84
2023/08/29 21:35:21;;;;;;;1.85;0.50;;;;;;;;;;10471837;28;20437;-84
2023/08/29 21:40:25;;;;;;;0.73;0.30;;;;;;;;;;10466550;28;21139;-83
2023/08/29 21:45:27;;;;;;;3.20;0.90;;;;;;;;;;10478133;28;20475;-83
2023/08/29 21:50:29;;;;;;;2.37;0.33;;;;;;;;;;10458515;28;20446;-85
2023/08/29 21:55:33;;;;;;;2.63;0.50;;;;;;;;;;10464838;28;20893;-84
2023/08/29 22:00:36;;;;;;;0.83;0.50;;;;;;;;;;10464771;28;20505;-84
2023/08/29 22:05:38;;;;;;;1.33;0.70;;;;;;;;;;10468473;28;20643;-84
2023/08/29 22:10:42;;;;;;;0.80;0.57;;;;;;;;;;10470651;28;20448;-85
2023/08/29 22:15:44;;;;;;;2.30;0.70;;;;;;;;;;10473979;28;20536;-84
2023/08/29 22:20:46;;;;;;;1.10;0.40;;;;;;;;;;10472961;28;20453;-85
2023/08/29 22:25:50;;;;;;;1.70;0.57;;;;;;;;;;10479333;28;20406;-83
2023/08/29 22:30:52;;;;;;;2.90;0.55;;;;;;;;;;10471173;28;20890;-84
2023/08/29 22:35:54;;;;;;;0.80;0.60;;;;;;;;;;10480471;28;20775;-84
2023/08/29 22:41:06;;;;;;;1.53;0.70;;;;;;;;;;10476035;22;20534;-86
2023/08/29 22:46:09;;;;;;;2.40;0.60;;;;;;;;;;10440812;28;20470;-87
2023/08/29 22:51:11;;;;;;;1.20;0.80;;;;;;;;;;10447638;28;20413;-88
2023/08/29 22:56:15;;;;;;;1.00;0.60;;;;;;;;;;10448647;28;20434;-88
2023/08/29 23:01:19;;;;;;;4.53;1.38;;;;;;;;;;10445694;28;20456;-89
2023/08/29 23:06:21;;;;;;;0.85;0.38;;;;;;;;;;10442034;28;20419;-90
2023/08/29 23:11:28;;;;;;;4.05;1.08;;;;;;;;;;10440666;28;20402;-88
2023/08/29 23:16:30;;;;;;;0.73;0.40;;;;;;;;;;10433734;28;20399;-87
2023/08/29 23:21:32;;;;;;;1.00;0.60;;;;;;;;;;10439399;28;20902;-88
2023/08/29 23:26:36;;;;;;;1.57;0.53;;;;;;;;;;10438134;28;20416;-87
2023/08/29 23:31:39;;;;;;;2.07;0.80;;;;;;;;;;10437065;28;20413;-88
2023/08/29 23:36:42;;;;;;;1.33;0.80;;;;;;;;;;10436142;28;20406;-88
2023/08/29 23:41:47;;;;;;;2.00;0.70;;;;;;;;;;10444098;28;20419;-87
2023/08/29 23:46:49;;;;;;;1.50;0.60;;;;;;;;;;10431260;28;20404;-88
2023/08/29 23:51:52;;;;;;;1.50;0.70;;;;;;;;;;10435416;28;20764;-87
2023/08/29 23:56:55;;;;;;;1.67;0.60;;;;;;;;;;10437042;28;20463;-87
